< < Back
Terminal Aerodrome Forecast


Current Version              Previous Versions:   1  2  3  4  5  6  7  8  9  

Terminal Aerodrome Forecast

814
FTUS42 KILM 141120
TAFILM
TAF
KILM 141120Z 1412/1512 01008KT P6SM SKC
     FM141400 03011KT P6SM FEW120 SCT250
     FM142100 06007KT P6SM SCT050 BKN200
     FM150400 05004KT P6SM BKN050 OVC100
     FM150800 06006KT 6SM -RA BKN012=

Latest METAR

252
SAUS70 KWBC 142300 RRA
MTRILM
METAR KILM 142253Z AUTO 07009KT 10SM CLR 00/M12 A3048 RMK AO2 SLP320
T00001117


USA.gov is the U.S. government's official web portal to all federal, state and local government web resources and services.